createdAt,value
2016-05-18T00:00:16.822Z,0
2016-05-18T00:01:16.824Z,0
2016-05-18T00:02:16.969Z,0
2016-05-18T00:03:16.971Z,0
2016-05-18T00:04:16.958Z,0
2016-05-18T00:05:16.805Z,0
2016-05-18T00:06:16.963Z,0
2016-05-18T00:07:16.950Z,0
2016-05-18T00:08:16.796Z,0
2016-05-18T00:09:16.940Z,0
2016-05-18T00:10:16.943Z,0
2016-05-18T00:11:16.930Z,0
2016-05-18T00:12:16.948Z,0
2016-05-18T00:13:16.919Z,0
2016-05-18T00:14:16.766Z,0
2016-05-18T00:15:16.909Z,0
2016-05-18T00:16:16.912Z,0
2016-05-18T00:17:16.899Z,0
2016-05-18T00:18:16.746Z,0
2016-05-18T00:19:16.904Z,0
2016-05-18T00:20:16.892Z,0
2016-05-18T00:21:16.894Z,0
2016-05-18T00:22:16.725Z,0
2016-05-18T00:23:16.571Z,0
2016-05-18T00:24:16.855Z,0
2016-05-18T00:25:16.874Z,0
2016-05-18T00:26:16.892Z,0
2016-05-18T00:27:16.863Z,0
2016-05-18T00:28:19.116Z,0
2016-05-18T00:29:16.869Z,0
2016-05-18T00:30:17.309Z,0
2016-05-18T00:31:17.186Z,0
2016-05-18T00:32:17.596Z,0
2016-05-18T00:33:17.536Z,0
2016-05-18T00:34:45.772Z,0
2016-05-18T00:35:18.432Z,0
2016-05-18T00:36:17.466Z,0
2016-05-18T00:37:17.812Z,0
2016-05-18T00:38:17.331Z,0
2016-05-18T00:40:17.460Z,0
2016-05-18T00:41:17.714Z,0
2016-05-18T00:42:17.451Z,0
2016-05-18T00:43:16.781Z,0
2016-05-18T00:44:16.832Z,0
2016-05-18T00:45:17.271Z,0
2016-05-18T00:46:16.462Z,0
2016-05-18T00:48:16.607Z,0
2016-05-18T00:49:17.203Z,0
2016-05-18T00:50:17.207Z,0
2016-05-18T00:51:16.756Z,0
2016-05-18T00:52:16.743Z,0
2016-05-18T00:53:17.027Z,0
2016-05-18T00:54:16.576Z,0
2016-05-18T00:55:16.720Z,0
2016-05-18T00:56:16.738Z,0
2016-05-18T00:57:16.569Z,0
2016-05-18T00:58:16.712Z,0
2016-05-18T00:59:16.543Z,0
2016-05-18T01:00:16.702Z,0
2016-05-18T01:01:16.689Z,0
2016-05-18T01:02:16.708Z,0
2016-05-18T01:03:16.678Z,0
2016-05-18T01:04:16.525Z,0
2016-05-18T01:05:16.684Z,0
2016-05-18T01:06:16.672Z,0
2016-05-18T01:07:16.658Z,0
2016-05-18T01:08:16.724Z,0
2016-05-18T01:09:16.649Z,0
2016-05-18T01:10:16.494Z,0
2016-05-18T01:11:16.654Z,0
2016-05-18T01:12:16.640Z,0
2016-05-18T01:13:16.488Z,0
2016-05-18T01:14:16.630Z,0
2016-05-18T01:15:16.632Z,0
2016-05-18T01:16:16.463Z,0
2016-05-18T01:17:16.482Z,0
2016-05-18T01:18:16.454Z,0
2016-05-18T01:19:16.456Z,0
2016-05-18T01:20:16.600Z,0
2016-05-18T01:21:16.290Z,0
2016-05-18T01:22:16.605Z,0
2016-05-18T01:23:17.154Z,0
2016-05-18T01:24:16.594Z,0
2016-05-18T01:25:16.582Z,0
2016-05-18T01:26:16.272Z,0
2016-05-18T01:27:16.415Z,0
2016-05-18T01:28:16.559Z,0
2016-05-18T01:29:16.405Z,0
2016-05-18T01:30:16.564Z,0
2016-05-18T01:31:16.550Z,0
2016-05-18T01:32:16.554Z,0
2016-05-18T01:33:16.541Z,0
2016-05-18T01:34:16.075Z,0
2016-05-18T01:35:16.546Z,0
2016-05-18T01:36:16.517Z,0
2016-05-18T01:37:16.520Z,0
2016-05-18T01:38:16.413Z,0
2016-05-18T01:39:16.525Z,0
2016-05-18T01:40:16.513Z,0
2016-05-18T01:41:16.500Z,0
2016-05-18T01:42:16.518Z,0
2016-05-18T01:43:16.505Z,0
2016-05-18T01:44:16.493Z,0
2016-05-18T01:45:16.510Z,0
2016-05-18T01:46:16.482Z,0
2016-05-18T01:47:16.876Z,0
2016-05-18T01:48:16.879Z,0
2016-05-18T01:49:16.474Z,0
2016-05-18T01:50:17.680Z,0
2016-05-18T01:51:16.511Z,0
2016-05-18T01:52:16.951Z,0
2016-05-18T01:53:31.767Z,0
2016-05-18T01:54:17.347Z,0
2016-05-18T01:55:17.647Z,0
2016-05-18T01:56:18.400Z,0
2016-05-18T01:57:17.168Z,0
2016-05-18T01:58:17.733Z,0
2016-05-18T01:59:17.783Z,0
2016-05-18T02:00:17.067Z,0
2016-05-18T02:01:16.788Z,0
2016-05-18T02:02:17.760Z,0
2016-05-18T02:03:17.247Z,0
2016-05-18T02:04:17.546Z,0
2016-05-18T02:05:16.283Z,0
2016-05-18T02:06:16.848Z,0
2016-05-18T02:07:17.100Z,0
2016-05-18T02:08:18.103Z,0
2016-05-18T02:09:16.388Z,0
2016-05-18T02:10:16.233Z,0
2016-05-18T02:11:16.081Z,0
2016-05-18T02:12:16.364Z,0
2016-05-18T02:13:16.382Z,0
2016-05-18T02:14:16.214Z,0
2016-05-18T02:15:16.357Z,0
2016-05-18T02:16:16.360Z,0
2016-05-18T02:17:16.190Z,0
2016-05-18T02:18:16.334Z,0
2016-05-18T02:19:16.180Z,0
2016-05-18T02:20:16.026Z,0
2016-05-18T02:21:16.326Z,0
2016-05-18T02:22:16.313Z,0
2016-05-18T02:23:16.973Z,0
2016-05-18T02:24:16.334Z,0
2016-05-18T02:25:16.165Z,0
2016-05-18T02:26:16.152Z,0
2016-05-18T02:27:16.139Z,0
2016-05-18T02:28:16.298Z,0
2016-05-18T02:29:16.128Z,0
2016-05-18T02:30:16.132Z,0
2016-05-18T02:31:16.275Z,0
2016-05-18T02:32:16.278Z,0
2016-05-18T02:33:16.280Z,0
2016-05-18T02:34:16.111Z,0
2016-05-18T02:35:16.270Z,0
2016-05-18T02:36:15.961Z,0
2016-05-18T02:37:16.275Z,0
2016-05-18T02:38:16.106Z,0
2016-05-18T02:39:16.250Z,0
2016-05-18T02:40:16.252Z,0
2016-05-18T02:41:16.239Z,0
2016-05-18T02:42:16.227Z,0
2016-05-18T02:43:16.307Z,0
2016-05-18T02:44:16.060Z,0
2016-05-18T02:45:16.062Z,0
2016-05-18T02:46:16.222Z,0
2016-05-18T02:47:16.224Z,0
2016-05-18T02:48:16.196Z,0
2016-05-18T02:49:16.198Z,0
2016-05-18T02:50:16.217Z,0
2016-05-18T02:51:16.032Z,0
2016-05-18T02:52:16.190Z,0
2016-05-18T02:53:16.194Z,0
2016-05-18T02:54:16.024Z,0
2016-05-18T02:55:16.183Z,0
2016-05-18T02:56:16.029Z,0
2016-05-18T02:57:16.173Z,0
2016-05-18T02:58:16.020Z,0
2016-05-18T02:59:16.162Z,0
2016-05-18T03:00:15.993Z,0
2016-05-18T03:01:15.840Z,0
2016-05-18T03:02:16.139Z,0
2016-05-18T03:03:16.142Z,0
2016-05-18T03:04:16.129Z,5
2016-05-18T03:06:17.556Z,5
2016-05-18T03:07:16.700Z,5
2016-05-18T03:08:18.264Z,5
2016-05-18T03:09:16.174Z,5
2016-05-18T03:10:16.302Z,5
2016-05-18T03:11:16.226Z,5
2016-05-18T03:12:17.667Z,5
2016-05-18T03:13:30.122Z,5
2016-05-18T03:14:16.093Z,5
2016-05-18T03:15:16.737Z,5
2016-05-18T03:16:31.974Z,5
2016-05-18T03:17:17.774Z,5
2016-05-18T03:18:17.260Z,5
2016-05-18T03:19:15.920Z,5
2016-05-18T03:20:16.579Z,10
2016-05-18T03:21:17.003Z,10
2016-05-18T03:22:16.115Z,10
2016-05-18T03:23:16.851Z,10
2016-05-18T03:24:16.090Z,15
2016-05-18T03:25:16.045Z,15
2016-05-18T03:26:16.032Z,15
2016-05-18T03:27:16.051Z,15
2016-05-18T03:28:16.022Z,20
2016-05-18T03:29:16.025Z,20
2016-05-18T03:30:16.012Z,20
2016-05-18T03:31:16.015Z,20
2016-05-18T03:32:15.861Z,25
2016-05-18T03:33:16.020Z,25
2016-05-18T03:34:16.022Z,25
2016-05-18T03:35:16.009Z,30
2016-05-18T03:36:15.997Z,30
2016-05-18T03:37:15.983Z,30
2016-05-18T03:38:15.643Z,35
2016-05-18T03:39:15.988Z,35
2016-05-18T03:40:15.991Z,35
2016-05-18T03:41:15.666Z,35
2016-05-18T03:42:15.981Z,40
2016-05-18T03:43:15.969Z,45
2016-05-18T03:44:15.800Z,45
2016-05-18T03:45:15.958Z,50
2016-05-18T03:46:15.961Z,50
2016-05-18T03:47:15.949Z,50
2016-05-18T03:48:15.935Z,50
2016-05-18T03:49:15.938Z,50
2016-05-18T03:50:15.613Z,50
2016-05-18T03:51:15.771Z,55
2016-05-18T03:52:15.774Z,55
2016-05-18T03:53:16.307Z,55
2016-05-18T03:54:15.921Z,60
2016-05-18T03:55:15.610Z,60
2016-05-18T03:56:15.754Z,60
2016-05-18T03:57:15.757Z,60
2016-05-18T03:58:15.899Z,60
2016-05-18T03:59:15.731Z,60
2016-05-18T04:00:15.889Z,60
2016-05-18T04:01:15.579Z,60
2016-05-18T04:02:15.879Z,60
2016-05-18T04:03:15.867Z,55
2016-05-18T04:04:15.869Z,60
2016-05-18T04:05:15.715Z,60
2016-05-18T04:06:15.859Z,65
2016-05-18T04:07:15.548Z,75
2016-05-18T04:08:15.708Z,85
2016-05-18T04:09:15.851Z,90
2016-05-18T04:10:15.681Z,90
2016-05-18T04:11:15.684Z,90
2016-05-18T04:12:15.844Z,90
2016-05-18T04:13:15.831Z,90
2016-05-18T04:14:15.677Z,95
2016-05-18T04:15:15.820Z,100
2016-05-18T04:16:15.822Z,100
2016-05-18T04:17:15.825Z,95
2016-05-18T04:18:15.657Z,95
2016-05-18T04:19:15.643Z,110
2016-05-18T04:20:15.819Z,130
2016-05-18T04:21:15.649Z,155
2016-05-18T04:22:15.793Z,175
2016-05-18T04:23:16.216Z,185
2016-05-18T04:24:17.344Z,180
2016-05-18T04:25:18.160Z,155
2016-05-18T04:26:16.240Z,135
2016-05-18T04:27:16.947Z,120
2016-05-18T04:28:16.418Z,110
2016-05-18T04:29:16.326Z,110
2016-05-18T04:30:16.142Z,110
2016-05-18T04:31:15.941Z,125
2016-05-18T04:32:15.709Z,110
2016-05-18T04:33:15.743Z,110
2016-05-18T04:34:17.840Z,115
2016-05-18T04:35:17.531Z,115
2016-05-18T04:36:16.862Z,120
2016-05-18T04:37:17.067Z,120
2016-05-18T04:38:15.804Z,120
2016-05-18T04:39:16.307Z,125
2016-05-18T04:40:16.122Z,130
2016-05-18T04:41:17.422Z,135
2016-05-18T04:42:15.721Z,135
2016-05-18T04:43:15.724Z,140
2016-05-18T04:44:30.242Z,150
2016-05-18T04:45:15.808Z,150
2016-05-18T04:46:15.700Z,155
2016-05-18T04:47:15.422Z,160
2016-05-18T04:48:15.565Z,170
2016-05-18T04:49:15.693Z,175
2016-05-18T04:50:15.539Z,175
2016-05-18T04:51:15.699Z,175
2016-05-18T04:52:15.545Z,175
2016-05-18T04:53:16.157Z,195
2016-05-18T04:54:15.535Z,235
2016-05-18T04:55:15.537Z,290
2016-05-18T04:56:15.524Z,320
2016-05-18T04:57:15.682Z,325
2016-05-18T04:58:15.671Z,310
2016-05-18T04:59:15.517Z,315
2016-05-18T05:00:15.520Z,300
2016-05-18T05:01:15.663Z,285
2016-05-18T05:02:15.665Z,270
2016-05-18T05:03:15.668Z,245
2016-05-18T05:04:15.498Z,225
2016-05-18T05:05:15.501Z,195
2016-05-18T05:06:15.504Z,180
2016-05-18T05:07:15.647Z,185
2016-05-18T05:08:15.634Z,210
2016-05-18T05:09:15.654Z,250
2016-05-18T05:10:15.483Z,295
2016-05-18T05:11:15.642Z,355
2016-05-18T05:12:15.630Z,395
2016-05-18T05:13:15.633Z,440
2016-05-18T05:14:15.478Z,490
2016-05-18T05:15:15.622Z,605
2016-05-18T05:16:15.328Z,645
2016-05-18T05:17:15.159Z,605
2016-05-18T05:18:15.459Z,570
2016-05-18T05:19:15.617Z,530
2016-05-18T05:20:15.635Z,575
2016-05-18T05:21:15.466Z,445
2016-05-18T05:22:15.469Z,435
2016-05-18T05:23:16.160Z,375
2016-05-18T05:24:15.616Z,315
2016-05-18T05:25:15.633Z,260
2016-05-18T05:26:15.449Z,225
2016-05-18T05:27:15.451Z,215
2016-05-18T05:28:15.611Z,220
2016-05-18T05:29:15.457Z,250
2016-05-18T05:30:15.318Z,300
2016-05-18T05:31:15.462Z,360
2016-05-18T05:32:15.465Z,405
2016-05-18T05:33:15.624Z,425
2016-05-18T05:34:15.470Z,425
2016-05-18T05:35:15.614Z,395
2016-05-18T05:36:15.616Z,405
2016-05-18T05:37:15.620Z,365
2016-05-18T05:38:15.372Z,375
2016-05-18T05:39:15.468Z,390
2016-05-18T05:40:15.612Z,405
2016-05-18T05:41:15.630Z,415
2016-05-18T05:42:15.648Z,465
2016-05-18T05:43:17.150Z,470
2016-05-18T05:44:15.731Z,485
2016-05-18T05:45:16.187Z,530
2016-05-18T05:46:16.330Z,570
2016-05-18T05:47:15.817Z,720
2016-05-18T05:48:15.867Z,760
2016-05-18T05:49:17.776Z,790
2016-05-18T05:50:16.982Z,840
2016-05-18T05:51:16.563Z,785
2016-05-18T05:52:17.612Z,885
2016-05-18T05:53:17.287Z,765
2016-05-18T05:54:15.774Z,445
2016-05-18T05:55:16.761Z,420
2016-05-18T05:56:15.483Z,405
2016-05-18T05:57:15.642Z,400
2016-05-18T05:58:16.051Z,405
2016-05-18T05:59:17.803Z,425
2016-05-18T06:00:16.306Z,485
2016-05-18T06:01:15.980Z,575
2016-05-18T06:02:15.655Z,680
2016-05-18T06:03:15.954Z,830
2016-05-18T06:04:15.613Z,790
2016-05-18T06:05:15.663Z,625
2016-05-18T06:06:15.665Z,540
2016-05-18T06:07:15.512Z,480
2016-05-18T06:08:15.562Z,515
2016-05-18T06:09:15.376Z,580
2016-05-18T06:10:15.708Z,630
2016-05-18T06:11:15.539Z,640
2016-05-18T06:12:15.697Z,610
2016-05-18T06:13:15.544Z,670
2016-05-18T06:14:15.718Z,540
2016-05-18T06:15:15.689Z,585
2016-05-18T06:16:15.553Z,610
2016-05-18T06:17:15.555Z,660
2016-05-18T06:18:15.557Z,645
2016-05-18T06:19:15.716Z,610
2016-05-18T06:20:15.719Z,620
2016-05-18T06:21:15.722Z,630
2016-05-18T06:22:15.724Z,625
2016-05-18T06:23:15.743Z,945
2016-05-18T06:24:15.571Z,805
2016-05-18T06:25:15.730Z,680
2016-05-18T06:26:15.576Z,1160
2016-05-18T06:27:15.735Z,1230
2016-05-18T06:28:15.754Z,1275
2016-05-18T06:29:15.756Z,1280
2016-05-18T06:30:15.774Z,1305
2016-05-18T06:31:15.605Z,1350
2016-05-18T06:32:15.607Z,1400
2016-05-18T06:33:15.782Z,1425
2016-05-18T06:34:15.785Z,1465
2016-05-18T06:35:15.788Z,1500
2016-05-18T06:36:15.635Z,1580
2016-05-18T06:37:15.793Z,1570
2016-05-18T06:38:15.921Z,1425
2016-05-18T06:39:15.814Z,1175
2016-05-18T06:40:15.676Z,1130
2016-05-18T06:41:15.835Z,1075
2016-05-18T06:42:15.838Z,1195
2016-05-18T06:43:15.700Z,1495
2016-05-18T06:44:15.702Z,1500
2016-05-18T06:45:15.720Z,1505
2016-05-18T06:46:15.880Z,1565
2016-05-18T06:47:15.914Z,1360
2016-05-18T06:48:15.900Z,1080
2016-05-18T06:49:15.920Z,1010
2016-05-18T06:50:15.766Z,875
2016-05-18T06:51:15.925Z,770
2016-05-18T06:52:15.959Z,720
2016-05-18T06:53:15.617Z,720
2016-05-18T06:54:15.980Z,715
2016-05-18T06:55:15.827Z,680
2016-05-18T06:56:16.000Z,635
2016-05-18T06:57:16.003Z,625
2016-05-18T06:58:15.866Z,655
2016-05-18T06:59:16.024Z,780
2016-05-18T07:00:15.886Z,1330
2016-05-18T07:01:15.733Z,1135
2016-05-18T07:02:16.751Z,855
2016-05-18T07:03:17.379Z,1435
2016-05-18T07:04:17.272Z,1680
2016-05-18T07:05:16.712Z,1740
2016-05-18T07:06:16.637Z,1715
2016-05-18T07:07:16.312Z,1710
2016-05-18T07:09:17.332Z,1735
2016-05-18T07:10:16.132Z,1735
2016-05-18T07:11:17.057Z,1775
2016-05-18T07:12:16.403Z,1800
2016-05-18T07:13:17.328Z,1815
2016-05-18T07:14:18.142Z,1775
2016-05-18T07:15:17.052Z,1790
2016-05-18T07:16:16.617Z,1835
2016-05-18T07:17:16.448Z,1860
2016-05-18T07:18:16.372Z,1815
2016-05-18T07:19:16.125Z,1845
2016-05-18T07:20:16.237Z,1550
2016-05-18T07:22:16.617Z,1850
2016-05-18T07:23:16.292Z,1840
2016-05-18T07:24:16.341Z,1885
2016-05-18T07:25:16.516Z,1870
2016-05-18T07:26:16.175Z,1865
2016-05-18T07:27:16.334Z,1810
2016-05-18T07:28:16.211Z,1845
2016-05-18T07:29:16.386Z,1860
2016-05-18T07:30:16.389Z,1875
2016-05-18T07:31:16.267Z,1915
2016-05-18T07:32:16.411Z,1965
2016-05-18T07:33:16.554Z,1970
2016-05-18T07:34:16.306Z,1970
2016-05-18T07:35:16.465Z,1880
2016-05-18T07:36:16.515Z,1860
2016-05-18T07:37:16.502Z,1825
2016-05-18T07:38:16.285Z,1765
2016-05-18T07:39:16.538Z,1765
2016-05-18T07:40:16.556Z,1735
2016-05-18T07:41:16.560Z,1730
2016-05-18T07:42:16.578Z,1770
2016-05-18T07:43:16.284Z,1770
2016-05-18T07:44:16.458Z,1770
2016-05-18T07:45:16.476Z,1795
2016-05-18T07:46:16.698Z,1815
2016-05-18T07:47:17.701Z,1845
2016-05-18T07:48:16.687Z,1915
2016-05-18T07:49:16.690Z,1920
2016-05-18T07:50:16.567Z,1975
2016-05-18T07:51:16.742Z,1945
2016-05-18T07:52:16.761Z,1985
2016-05-18T07:53:17.013Z,2040
2016-05-18T07:54:16.797Z,2075
2016-05-18T07:55:16.816Z,2055
2016-05-18T07:56:16.819Z,2015
2016-05-18T07:57:16.680Z,1995
2016-05-18T07:58:16.558Z,1960
2016-05-18T07:59:16.888Z,1960
2016-05-18T08:00:16.830Z,2150
2016-05-18T08:01:16.911Z,2380
2016-05-18T08:02:16.944Z,2445
2016-05-18T08:03:16.978Z,2485
2016-05-18T08:04:16.980Z,2495
2016-05-18T08:05:16.999Z,2490
2016-05-18T08:06:17.033Z,2435
2016-05-18T08:07:16.879Z,2450
2016-05-18T08:08:17.210Z,2470
2016-05-18T08:09:17.088Z,2495
2016-05-18T08:10:17.107Z,2525
2016-05-18T08:11:16.968Z,2420
2016-05-18T08:12:17.143Z,2350
2016-05-18T08:13:17.161Z,2340
2016-05-18T08:14:17.179Z,2055
2016-05-18T08:15:17.198Z,1760
2016-05-18T08:16:17.200Z,1720
2016-05-18T08:17:17.250Z,1690
2016-05-18T08:18:17.252Z,1670
2016-05-18T08:19:17.270Z,1695
2016-05-18T08:20:17.289Z,1775
2016-05-18T08:21:20.183Z,1835
2016-05-18T08:22:17.342Z,1825
2016-05-18T08:23:18.860Z,1735
2016-05-18T08:24:17.909Z,1750
2016-05-18T08:25:18.006Z,1780
2016-05-18T08:26:17.400Z,1830
2016-05-18T08:27:18.152Z,1825
2016-05-18T08:28:18.462Z,1855
2016-05-18T08:29:17.414Z,1905
2016-05-18T08:30:35.862Z,1865
2016-05-18T08:31:19.925Z,1860
2016-05-18T08:32:17.954Z,1850
2016-05-18T08:33:17.445Z,1810
2016-05-18T08:34:18.244Z,1835
2016-05-18T08:35:18.482Z,1845
2016-05-18T08:36:19.405Z,1865
2016-05-18T08:37:19.346Z,1865
2016-05-18T08:38:18.424Z,1850
2016-05-18T08:39:18.854Z,1865
2016-05-18T08:40:17.830Z,1885
2016-05-18T08:41:31.878Z,1885
2016-05-18T08:42:18.018Z,1880
2016-05-18T08:43:17.886Z,1865
2016-05-18T08:44:18.047Z,1690
2016-05-18T08:45:17.755Z,1030
2016-05-18T08:46:18.088Z,640
2016-05-18T08:47:17.953Z,630
2016-05-18T08:48:18.113Z,630
2016-05-18T08:49:18.132Z,630
2016-05-18T08:50:18.182Z,625
2016-05-18T08:51:18.013Z,620
2016-05-18T08:52:18.174Z,620
2016-05-18T08:53:18.520Z,620
2016-05-18T08:54:18.070Z,625
2016-05-18T08:55:18.230Z,620
2016-05-18T08:56:18.233Z,615
2016-05-18T08:57:18.110Z,610
2016-05-18T08:58:18.253Z,600
2016-05-18T08:59:18.271Z,595
2016-05-18T09:00:32.449Z,600
2016-05-18T09:01:18.324Z,600
2016-05-18T09:02:18.310Z,605
2016-05-18T09:03:18.157Z,605
2016-05-18T09:04:18.332Z,600
2016-05-18T09:05:18.178Z,595
2016-05-18T09:06:18.337Z,595
2016-05-18T09:07:18.074Z,595
2016-05-18T09:08:19.389Z,600
2016-05-18T09:09:18.220Z,600
2016-05-18T09:10:18.379Z,600
2016-05-18T09:11:18.382Z,595
2016-05-18T09:12:18.243Z,590
2016-05-18T09:13:18.403Z,590
2016-05-18T09:14:18.249Z,595
2016-05-18T09:15:18.267Z,620
2016-05-18T09:16:18.270Z,650
2016-05-18T09:17:18.445Z,665
2016-05-18T09:18:18.432Z,670
2016-05-18T09:19:18.450Z,620
2016-05-18T09:20:18.453Z,585
2016-05-18T09:21:18.486Z,570
2016-05-18T09:22:18.458Z,560
2016-05-18T09:23:18.508Z,555
2016-05-18T09:24:18.479Z,550
2016-05-18T09:25:18.497Z,545
2016-05-18T09:26:18.500Z,540
2016-05-18T09:27:18.519Z,540
2016-05-18T09:28:18.208Z,535
2016-05-18T09:29:18.367Z,530
2016-05-18T09:30:18.510Z,530
2016-05-18T09:31:18.529Z,530
2016-05-18T09:32:18.532Z,530
2016-05-18T09:33:18.378Z,525
2016-05-18T09:34:18.224Z,525
2016-05-18T09:35:18.758Z,515
2016-05-18T09:36:18.418Z,520
2016-05-18T09:37:18.560Z,525
2016-05-18T09:38:18.876Z,535
2016-05-18T09:39:19.988Z,595
2016-05-18T09:40:21.226Z,570
2016-05-18T09:41:19.993Z,565
2016-05-18T09:42:18.590Z,580
2016-05-18T09:43:19.279Z,585
2016-05-18T09:44:19.236Z,595
2016-05-18T09:45:18.832Z,605
2016-05-18T09:46:18.960Z,595
2016-05-18T09:47:19.025Z,595
2016-05-18T09:48:18.309Z,535
2016-05-18T09:49:19.359Z,510
2016-05-18T09:50:34.442Z,440
2016-05-18T09:51:19.786Z,425
2016-05-18T09:52:19.226Z,460
2016-05-18T09:53:19.823Z,530
2016-05-18T09:54:18.513Z,600
2016-05-18T09:55:20.828Z,590
2016-05-18T09:56:19.112Z,545
2016-05-18T09:57:33.149Z,560
2016-05-18T09:58:32.855Z,520
2016-05-18T09:59:19.386Z,475
2016-05-18T10:00:18.935Z,440
2016-05-18T10:01:18.282Z,490
2016-05-18T10:02:18.550Z,555
2016-05-18T10:03:18.725Z,575
2016-05-18T10:04:18.711Z,605
2016-05-18T10:05:18.714Z,610
2016-05-18T10:06:18.733Z,575
2016-05-18T10:07:18.735Z,550
2016-05-18T10:08:18.597Z,540
2016-05-18T10:09:18.741Z,545
2016-05-18T10:10:18.587Z,565
2016-05-18T10:11:18.590Z,555
2016-05-18T10:12:18.765Z,590
2016-05-18T10:13:18.751Z,605
2016-05-18T10:14:18.613Z,605
2016-05-18T10:15:18.648Z,590
2016-05-18T10:16:18.478Z,580
2016-05-18T10:17:18.621Z,590
2016-05-18T10:18:18.796Z,590
2016-05-18T10:19:18.815Z,585
2016-05-18T10:20:18.817Z,585
2016-05-18T10:21:18.820Z,575
2016-05-18T10:22:18.823Z,545
2016-05-18T10:23:19.153Z,565
2016-05-18T10:24:18.828Z,615
2016-05-18T10:25:18.675Z,620
2016-05-18T10:26:18.677Z,595
2016-05-18T10:27:18.852Z,550
2016-05-18T10:28:18.855Z,505
2016-05-18T10:29:18.857Z,495
2016-05-18T10:30:18.703Z,510
2016-05-18T10:31:18.722Z,550
2016-05-18T10:32:18.881Z,550
2016-05-18T10:33:18.743Z,565
2016-05-18T10:34:19.292Z,605
2016-05-18T10:35:18.420Z,635
2016-05-18T10:36:18.908Z,630
2016-05-18T10:37:18.597Z,620
2016-05-18T10:38:18.615Z,640
2016-05-18T10:39:18.759Z,660
2016-05-18T10:40:18.777Z,655
2016-05-18T10:41:18.936Z,650
2016-05-18T10:42:18.939Z,690
2016-05-18T10:43:18.957Z,705
2016-05-18T10:44:18.944Z,725
2016-05-18T10:45:18.807Z,735
2016-05-18T10:46:18.981Z,715
2016-05-18T10:47:18.843Z,680
2016-05-18T10:48:18.987Z,645
2016-05-18T10:49:19.005Z,625
2016-05-18T10:50:18.992Z,620
2016-05-18T10:51:18.853Z,585
2016-05-18T10:52:19.013Z,530
2016-05-18T10:53:19.531Z,520
2016-05-18T10:54:18.721Z,535
2016-05-18T10:55:18.865Z,575
2016-05-18T10:56:18.898Z,590
2016-05-18T10:57:19.058Z,565
2016-05-18T10:58:22.264Z,605
2016-05-18T10:59:21.344Z,590
2016-05-18T11:00:19.456Z,560
2016-05-18T11:01:20.162Z,550
2016-05-18T11:02:20.056Z,540
2016-05-18T11:03:19.261Z,520
2016-05-18T11:04:34.188Z,535
2016-05-18T11:05:34.144Z,535
2016-05-18T11:06:33.288Z,545
2016-05-18T11:07:19.694Z,555
2016-05-18T11:08:20.009Z,535
2016-05-18T11:09:19.730Z,525
2016-05-18T11:10:19.388Z,540
2016-05-18T11:11:20.111Z,575
2016-05-18T11:12:19.676Z,605
2016-05-18T11:13:19.616Z,610
2016-05-18T11:14:21.010Z,620
2016-05-18T11:15:19.168Z,630
2016-05-18T11:16:19.186Z,640
2016-05-18T11:18:19.395Z,630
2016-05-18T11:19:19.320Z,650
2016-05-18T11:20:19.228Z,680
2016-05-18T11:21:19.215Z,695
2016-05-18T11:22:19.218Z,710
2016-05-18T11:23:19.909Z,730
2016-05-18T11:24:19.114Z,750
2016-05-18T11:25:19.320Z,740
2016-05-18T11:26:18.792Z,740
2016-05-18T11:27:19.278Z,725
2016-05-18T11:28:19.282Z,720
2016-05-18T11:29:19.112Z,715
2016-05-18T11:30:19.286Z,700
2016-05-18T11:31:19.133Z,685
2016-05-18T11:32:19.152Z,670
2016-05-18T11:33:19.013Z,660
2016-05-18T11:34:19.157Z,655
2016-05-18T11:35:19.160Z,655
2016-05-18T11:36:19.319Z,665
2016-05-18T11:37:19.336Z,675
2016-05-18T11:38:19.777Z,690
2016-05-18T11:39:19.186Z,710
2016-05-18T11:40:19.391Z,750
2016-05-18T11:41:19.191Z,775
2016-05-18T11:42:19.397Z,785
2016-05-18T11:43:19.228Z,770
2016-05-18T11:44:19.230Z,760
2016-05-18T11:45:19.405Z,765
2016-05-18T11:46:19.251Z,760
2016-05-18T11:47:19.410Z,750
2016-05-18T11:48:19.413Z,730
2016-05-18T11:49:19.275Z,730
2016-05-18T11:50:19.451Z,725
2016-05-18T11:51:19.296Z,720
2016-05-18T11:52:19.455Z,705
2016-05-18T11:53:19.615Z,690
2016-05-18T11:54:19.023Z,660
2016-05-18T11:55:19.323Z,625
2016-05-18T11:56:19.341Z,570
2016-05-18T11:57:19.344Z,540
2016-05-18T11:58:19.503Z,535
2016-05-18T11:59:19.380Z,560
2016-05-18T12:00:19.367Z,585
2016-05-18T12:01:19.370Z,605
2016-05-18T12:02:19.232Z,645
2016-05-18T12:03:19.406Z,680
2016-05-18T12:04:19.566Z,710
2016-05-18T12:05:19.569Z,700
2016-05-18T12:06:19.258Z,645
2016-05-18T12:07:19.574Z,605
2016-05-18T12:08:19.530Z,565
2016-05-18T12:09:19.610Z,535
2016-05-18T12:10:19.613Z,515
2016-05-18T12:11:19.632Z,490
2016-05-18T12:12:19.650Z,495
2016-05-18T12:13:19.621Z,510
2016-05-18T12:14:19.655Z,525
2016-05-18T12:15:19.657Z,550
2016-05-18T12:16:19.504Z,565
2016-05-18T12:17:20.273Z,565
2016-05-18T12:18:21.384Z,565
2016-05-18T12:19:19.700Z,580
2016-05-18T12:20:19.702Z,595
2016-05-18T12:21:20.329Z,620
2016-05-18T12:22:19.724Z,645
2016-05-18T12:23:35.931Z,645
2016-05-18T12:24:34.482Z,640
2016-05-18T12:25:20.029Z,645
2016-05-18T12:26:34.753Z,660
2016-05-18T12:27:20.050Z,660
2016-05-18T12:28:19.802Z,665
2016-05-18T12:29:20.226Z,655
2016-05-18T12:30:20.558Z,645
2016-05-18T12:31:20.028Z,645
2016-05-18T12:32:20.938Z,640
2016-05-18T12:33:21.675Z,635
2016-05-18T12:34:21.114Z,625
2016-05-18T12:35:20.118Z,605
2016-05-18T12:36:20.433Z,595
2016-05-18T12:37:20.279Z,590
2016-05-18T12:38:19.970Z,605
2016-05-18T12:39:19.847Z,630
2016-05-18T12:40:19.537Z,660
2016-05-18T12:41:19.868Z,680
2016-05-18T12:42:19.886Z,680
2016-05-18T12:43:19.874Z,680
2016-05-18T12:44:19.735Z,680
2016-05-18T12:45:19.738Z,685
2016-05-18T12:46:19.757Z,685
2016-05-18T12:47:19.932Z,685
2016-05-18T12:48:19.762Z,685
2016-05-18T12:49:19.936Z,685
2016-05-18T12:50:19.783Z,675
2016-05-18T12:51:19.957Z,670
2016-05-18T12:52:19.804Z,665
2016-05-18T12:53:20.823Z,660
2016-05-18T12:54:19.981Z,650
2016-05-18T12:55:19.656Z,650
2016-05-18T12:56:20.003Z,645
2016-05-18T12:57:20.006Z,645
2016-05-18T12:58:20.008Z,640
2016-05-18T12:59:20.026Z,630
2016-05-18T13:00:20.513Z,605
2016-05-18T13:01:20.031Z,580
2016-05-18T13:02:19.737Z,570
2016-05-18T13:03:19.881Z,545
2016-05-18T13:04:20.055Z,535
2016-05-18T13:05:21.792Z,520
2016-05-18T13:06:19.920Z,515
2016-05-18T13:07:19.923Z,515
2016-05-18T13:08:20.800Z,510
2016-05-18T13:09:20.100Z,510
2016-05-18T13:10:19.947Z,505
2016-05-18T13:11:20.105Z,500
2016-05-18T13:12:20.124Z,495
2016-05-18T13:13:20.126Z,495
2016-05-18T13:14:20.129Z,480
2016-05-18T13:15:19.975Z,475
2016-05-18T13:16:20.150Z,475
2016-05-18T13:17:20.012Z,485
2016-05-18T13:18:20.171Z,495
2016-05-18T13:19:20.174Z,495
2016-05-18T13:20:20.426Z,495
2016-05-18T13:21:20.195Z,500
2016-05-18T13:22:20.057Z,505
2016-05-18T13:23:22.090Z,520
2016-05-18T13:24:20.218Z,540
2016-05-18T13:25:20.283Z,575
2016-05-18T13:26:20.270Z,590
2016-05-18T13:27:20.086Z,610
2016-05-18T13:28:20.276Z,620
2016-05-18T13:29:20.091Z,635
2016-05-18T13:30:20.281Z,645
2016-05-18T13:31:20.111Z,655
2016-05-18T13:32:20.115Z,665
2016-05-18T13:33:20.289Z,675
2016-05-18T13:34:20.136Z,680
2016-05-18T13:35:20.311Z,680
2016-05-18T13:36:20.970Z,680
2016-05-18T13:37:21.269Z,675
2016-05-18T13:38:21.131Z,660
2016-05-18T13:39:20.383Z,645
2016-05-18T13:40:21.292Z,640
2016-05-18T13:41:20.092Z,635
2016-05-18T13:42:20.610Z,625
2016-05-18T13:43:21.379Z,620
2016-05-18T13:44:21.257Z,615
2016-05-18T13:46:20.449Z,610
2016-05-18T13:47:21.561Z,610
2016-05-18T13:48:21.814Z,610
2016-05-18T13:49:21.129Z,610
2016-05-18T13:50:20.976Z,615
2016-05-18T13:51:22.182Z,615
2016-05-18T13:52:21.137Z,610
2016-05-18T13:53:20.468Z,615
2016-05-18T13:54:20.923Z,610
2016-05-18T13:55:20.818Z,600
2016-05-18T13:56:20.976Z,595
2016-05-18T13:57:20.495Z,590
2016-05-18T13:58:20.747Z,585
2016-05-18T13:59:20.343Z,575
2016-05-18T14:00:20.346Z,575
2016-05-18T14:01:20.209Z,580
2016-05-18T14:02:20.383Z,585
2016-05-18T14:03:20.526Z,600
2016-05-18T14:04:20.373Z,600